Rechercher aéroport 
image banner adimage banner ad
image banner ad

SVSB - Santa Barbara De Barinas

Situé à Barinas, Venezuela

ICAO - SVSB, IATA - SBB

Données fournies par Airmate  

Information générale

Coordonnées: N7°48'10" W71°9'57"
Élévation : 591 feet MSL.
 
Voir autres Aéroports à Barinas

Données opérationnelles

Accessible au public
Heure actuelle UTC:
Heure actuelle locale:
METAR: SVGD 261202Z AUTO 28001KT NCD 25/26 Q1014
Voir NOTAMs / SUP AIP / TFR affectant cet aéroport [VIEW]
Fréquences de communication: [VIEW]

Pistes:

Identifiant RWYQFULongueur (ft)Largeur (ft)SurfaceLDA (ft)
11111°5560131ASP
295577131

Coordonnées de l'aéroport

Adresse: Barinas Venezuela

Vue satellite de SVSB